Time;durP1;ratioP1;P1;durP2;ratioP2;P2;SDS_P1;SDS_P2;PMS_P1;PMS_P2;Temp;Humidity;BMP_temperature;BMP_pressure;BME280_temperature;BME280_humidity;BME280_pressure;Samples;Min_cycle;Max_cycle;Signal;HPM_P1;HPM_P2
2023/09/07 00:01:01;;;;;;;6.18;3.97;;;;;;;;;;4388371;32;69512;-62
2023/09/07 00:03:50;;;;;;;4.75;3.20;;;;;;;;;;4400295;32;68259;-62
2023/09/07 00:06:43;;;;;;;5.95;3.50;;;;;;;;;;4386953;32;68187;-63
2023/09/07 00:09:30;;;;;;;4.35;3.15;;;;;;;;;;4387147;32;71377;-63
2023/09/07 00:12:19;;;;;;;4.60;3.12;;;;;;;;;;4398957;32;65730;-63
2023/09/07 00:15:07;;;;;;;3.90;2.78;;;;;;;;;;4398889;32;67997;-63
2023/09/07 00:17:56;;;;;;;4.95;3.35;;;;;;;;;;4398992;32;60252;-63
2023/09/07 00:20:44;;;;;;;5.07;3.05;;;;;;;;;;4399995;32;70806;-62
2023/09/07 00:23:30;;;;;;;6.45;3.37;;;;;;;;;;4400098;32;66062;-62
2023/09/07 00:26:18;;;;;;;8.45;3.67;;;;;;;;;;4398673;32;67838;-63
2023/09/07 00:29:06;;;;;;;5.53;3.20;;;;;;;;;;4377759;32;59338;-63
2023/09/07 00:31:52;;;;;;;5.22;3.40;;;;;;;;;;4398528;32;69439;-62
2023/09/07 00:34:39;;;;;;;5.32;3.60;;;;;;;;;;4399228;32;69472;-63
2023/09/07 00:37:26;;;;;;;4.47;3.20;;;;;;;;;;4398622;32;67644;-62
2023/09/07 00:40:12;;;;;;;6.95;3.60;;;;;;;;;;4398444;32;71878;-62
2023/09/07 00:44:35;;;;;;;4.72;3.58;;;;;;;;;;3847642;37;43817;-62
2023/09/07 00:47:25;;;;;;;6.65;3.62;;;;;;;;;;4378971;32;59180;-63
2023/09/07 00:50:17;;;;;;;5.90;3.42;;;;;;;;;;4377523;32;70516;-63
2023/09/07 00:53:06;;;;;;;6.22;3.50;;;;;;;;;;4399745;32;69366;-62
2023/09/07 00:55:55;;;;;;;5.25;3.33;;;;;;;;;;4385591;32;68377;-63
2023/09/07 00:58:45;;;;;;;6.05;3.83;;;;;;;;;;4375086;32;71377;-62
2023/09/07 01:01:33;;;;;;;7.53;3.45;;;;;;;;;;4388219;32;65765;-63
2023/09/07 01:04:22;;;;;;;6.05;3.90;;;;;;;;;;4385945;32;67684;-62
2023/09/07 01:07:27;;;;;;;8.55;4.45;;;;;;;;;;4411138;32;60211;-63
2023/09/07 01:10:16;;;;;;;;;;;;;;;;;;4399676;32;71957;-62
2023/09/07 01:13:02;;;;;;;7.68;4.40;;;;;;;;;;4380975;32;66821;-62
2023/09/07 01:15:48;;;;;;;;;;;;;;;;;;4394591;32;67338;-63
2023/09/07 01:18:38;;;;;;;8.30;4.57;;;;;;;;;;4395977;32;59754;-64
2023/09/07 01:21:36;;;;;;;9.35;4.87;;;;;;;;;;4383650;32;69642;-63
2023/09/07 01:24:22;;;;;;;10.23;5.12;;;;;;;;;;4393887;32;69226;-63
2023/09/07 01:27:09;;;;;;;12.30;4.93;;;;;;;;;;4384923;32;67564;-63
2023/09/07 01:29:56;;;;;;;;;;;;;;;;;;4389369;32;71091;-63
2023/09/07 01:32:46;;;;;;;8.65;3.95;;;;;;;;;;4384666;32;65920;-62
2023/09/07 01:35:35;;;;;;;7.50;3.97;;;;;;;;;;4395673;32;69161;-63
2023/09/07 01:38:22;;;;;;;5.47;3.10;;;;;;;;;;4380842;32;67245;-64
2023/09/07 01:41:09;;;;;;;5.22;3.60;;;;;;;;;;4380430;32;72352;-62
2023/09/07 01:43:59;;;;;;;6.45;3.45;;;;;;;;;;4380706;32;66354;-63
2023/09/07 01:46:45;;;;;;;7.15;3.50;;;;;;;;;;4383389;32;67340;-62
2023/09/07 01:49:34;;;;;;;4.20;2.95;;;;;;;;;;4381255;32;59906;-62
2023/09/07 01:52:21;;;;;;;;;;;;;;;;;;4394331;32;69587;-63
2023/09/07 01:55:12;;;;;;;4.55;2.87;;;;;;;;;;4387964;32;69554;-63
2023/09/07 01:58:01;;;;;;;4.62;2.83;;;;;;;;;;4373012;32;66757;-63
2023/09/07 02:00:48;;;;;;;4.30;3.12;;;;;;;;;;4370614;32;61052;-63
2023/09/07 02:03:35;;;;;;;5.12;3.10;;;;;;;;;;4372949;32;70386;-63
2023/09/07 02:06:21;;;;;;;;;;;;;;;;;;4370649;32;68906;-63
2023/09/07 02:09:08;;;;;;;4.28;2.80;;;;;;;;;;4373043;32;68087;-62
2023/09/07 02:11:55;;;;;;;5.45;4.00;;;;;;;;;;4383407;32;70775;-62
2023/09/07 02:14:43;;;;;;;4.97;3.12;;;;;;;;;;4384647;32;65769;-63
2023/09/07 02:17:32;;;;;;;4.50;2.70;;;;;;;;;;4362298;32;67588;-63
2023/09/07 02:20:20;;;;;;;4.18;2.80;;;;;;;;;;4383557;32;60276;-63
2023/09/07 02:23:06;;;;;;;4.10;2.85;;;;;;;;;;4383206;32;69567;-62
2023/09/07 02:25:53;;;;;;;5.00;3.05;;;;;;;;;;4383385;32;64910;-63
2023/09/07 02:28:43;;;;;;;5.78;3.15;;;;;;;;;;4359485;32;67534;-62
2023/09/07 02:31:29;;;;;;;4.15;2.78;;;;;;;;;;4383288;32;60058;-62
2023/09/07 02:34:16;;;;;;;5.47;3.05;;;;;;;;;;4372434;32;70890;-63
2023/09/07 02:37:07;;;;;;;4.78;3.08;;;;;;;;;;4372193;32;69588;-63
2023/09/07 02:39:54;;;;;;;5.50;2.80;;;;;;;;;;4384245;32;67018;-63
2023/09/07 02:42:43;;;;;;;4.80;2.83;;;;;;;;;;4383652;32;71726;-63
2023/09/07 02:45:30;;;;;;;4.35;2.90;;;;;;;;;;4372274;32;65925;-63
2023/09/07 02:48:16;;;;;;;4.62;2.85;;;;;;;;;;4359095;32;68760;-62
2023/09/07 02:51:05;;;;;;;3.97;2.85;;;;;;;;;;4359048;32;68186;-63
2023/09/07 02:53:55;;;;;;;4.15;2.50;;;;;;;;;;4383886;32;71743;-63
2023/09/07 02:56:47;;;;;;;3.45;2.17;;;;;;;;;;4372768;32;65856;-61
2023/09/07 02:59:36;;;;;;;2.95;2.10;;;;;;;;;;4372430;32;66694;-64
2023/09/07 03:02:27;;;;;;;;;;;;;;;;;;4372520;32;59149;-62
2023/09/07 03:05:14;;;;;;;3.10;2.45;;;;;;;;;;4384116;32;69489;-63
2023/09/07 03:08:01;;;;;;;4.07;2.22;;;;;;;;;;4383506;32;69706;-62
2023/09/07 03:10:47;;;;;;;4.97;2.15;;;;;;;;;;4382602;32;66791;-62
2023/09/07 03:13:34;;;;;;;2.62;2.12;;;;;;;;;;4384029;32;60029;-62
2023/09/07 03:16:20;;;;;;;2.58;1.90;;;;;;;;;;4371775;32;70419;-62
2023/09/07 03:19:07;;;;;;;2.67;1.75;;;;;;;;;;4383698;32;69338;-63
2023/09/07 03:21:53;;;;;;;3.62;2.30;;;;;;;;;;4371809;32;67642;-63
2023/09/07 03:24:41;;;;;;;2.67;1.87;;;;;;;;;;4383511;32;71419;-63
2023/09/07 03:27:27;;;;;;;;;;;;;;;;;;4372102;32;66307;-62
2023/09/07 03:30:14;;;;;;;1.98;1.70;;;;;;;;;;4359042;32;67837;-62
2023/09/07 03:33:00;;;;;;;3.70;1.80;;;;;;;;;;4371899;32;59324;-63
2023/09/07 03:35:47;;;;;;;2.28;1.55;;;;;;;;;;4382056;32;70698;-62
2023/09/07 03:38:33;;;;;;;1.60;1.37;;;;;;;;;;4371661;32;66023;-63
2023/09/07 03:41:20;;;;;;;2.40;1.80;;;;;;;;;;4368911;32;67567;-63
2023/09/07 03:44:07;;;;;;;2.70;1.62;;;;;;;;;;4357976;32;60899;-63
2023/09/07 03:46:54;;;;;;;2.35;1.80;;;;;;;;;;4371429;32;70589;-63
2023/09/07 03:49:40;;;;;;;2.65;2.10;;;;;;;;;;4368507;32;70405;-63
2023/09/07 03:52:27;;;;;;;2.78;1.85;;;;;;;;;;4358440;32;65061;-63
2023/09/07 03:55:15;;;;;;;3.17;2.12;;;;;;;;;;4382125;32;71986;-62
2023/09/07 03:58:03;;;;;;;2.15;1.70;;;;;;;;;;4371761;32;64992;-63
2023/09/07 04:00:50;;;;;;;;;;;;;;;;;;4384090;32;67812;-61
2023/09/07 04:03:38;;;;;;;;;;;;;;;;;;4369079;32;67982;-62
2023/09/07 04:06:24;;;;;;;3.42;2.15;;;;;;;;;;4383736;32;70797;-62
2023/09/07 04:09:11;;;;;;;2.85;2.00;;;;;;;;;;4361841;32;65647;-63
2023/09/07 04:11:57;;;;;;;;;;;;;;;;;;4360425;32;67041;-62
2023/09/07 04:14:44;;;;;;;2.72;1.73;;;;;;;;;;4372507;32;60086;-62
2023/09/07 04:17:39;;;;;;;3.25;1.90;;;;;;;;;;4387302;32;69575;-62
2023/09/07 04:20:28;;;;;;;3.35;1.90;;;;;;;;;;4386071;32;68584;-62
2023/09/07 04:23:16;;;;;;;2.72;1.50;;;;;;;;;;4388965;32;67828;-62
2023/09/07 04:26:07;;;;;;;2.30;1.75;;;;;;;;;;4377032;32;71743;-63
2023/09/07 04:28:54;;;;;;;3.25;1.77;;;;;;;;;;4386955;32;70390;-63
2023/09/07 04:31:42;;;;;;;2.53;1.60;;;;;;;;;;4384251;32;69483;-63
2023/09/07 04:34:28;;;;;;;2.00;1.67;;;;;;;;;;4371175;32;67837;-63
2023/09/07 04:37:14;;;;;;;3.47;1.80;;;;;;;;;;4368345;32;71448;-63
2023/09/07 04:40:01;;;;;;;2.35;1.60;;;;;;;;;;4382940;32;65137;-63
2023/09/07 04:42:48;;;;;;;3.05;1.87;;;;;;;;;;4370874;32;67413;-63
2023/09/07 04:45:34;;;;;;;3.60;1.87;;;;;;;;;;4370985;32;60183;-62
2023/09/07 04:48:21;;;;;;;;;;;;;;;;;;4371140;32;69591;-62
2023/09/07 04:51:08;;;;;;;2.75;1.60;;;;;;;;;;4381696;32;68480;-63
2023/09/07 04:53:55;;;;;;;2.40;1.87;;;;;;;;;;4357520;32;67055;-63
2023/09/07 04:56:41;;;;;;;3.47;2.22;;;;;;;;;;4368241;32;61018;-62
2023/09/07 04:59:29;;;;;;;2.50;1.95;;;;;;;;;;4382634;32;69954;-62
2023/09/07 05:02:15;;;;;;;2.78;2.00;;;;;;;;;;4370705;32;69528;-62
2023/09/07 05:05:02;;;;;;;2.62;1.92;;;;;;;;;;4370582;32;66705;-63
2023/09/07 05:07:49;;;;;;;2.33;1.67;;;;;;;;;;4367905;32;71569;-62
2023/09/07 05:10:36;;;;;;;3.12;1.77;;;;;;;;;;4370731;32;64643;-63
2023/09/07 05:13:23;;;;;;;2.62;1.83;;;;;;;;;;4360026;32;66704;-62
2023/09/07 05:16:10;;;;;;;2.45;1.45;;;;;;;;;;4381459;32;59208;-63
2023/09/07 05:18:57;;;;;;;3.08;1.75;;;;;;;;;;4370586;32;71718;-62
2023/09/07 05:21:44;;;;;;;3.00;1.85;;;;;;;;;;4367816;32;66673;-62
2023/09/07 05:24:31;;;;;;;1.92;1.42;;;;;;;;;;4370738;32;67669;-63
2023/09/07 05:27:17;;;;;;;2.47;1.40;;;;;;;;;;4382685;32;60072;-63
2023/09/07 05:30:05;;;;;;;3.42;1.80;;;;;;;;;;4383553;32;69217;-63
2023/09/07 05:32:52;;;;;;;1.95;1.40;;;;;;;;;;4385198;32;67968;-63
2023/09/07 05:35:39;;;;;;;1.50;1.23;;;;;;;;;;4383790;32;66322;-63
2023/09/07 05:38:26;;;;;;;2.60;1.70;;;;;;;;;;4373535;32;71506;-63
2023/09/07 05:41:12;;;;;;;;;;;;;;;;;;4373844;32;70241;-63
2023/09/07 05:43:59;;;;;;;1.45;1.05;;;;;;;;;;4386166;32;68804;-63
2023/09/07 05:46:45;;;;;;;2.22;1.37;;;;;;;;;;4371571;32;67333;-62
2023/09/07 05:52:15;;;;;;;2.42;1.70;;;;;;;;;;3849036;37;43112;-62
2023/09/07 05:55:03;;;;;;;2.00;1.20;;;;;;;;;;4411379;32;60251;-62
2023/09/07 05:57:50;;;;;;;1.62;1.17;;;;;;;;;;4399818;32;69502;-63
2023/09/07 06:00:38;;;;;;;1.65;1.00;;;;;;;;;;4410435;32;69619;-62
2023/09/07 06:03:26;;;;;;;0.93;0.93;;;;;;;;;;4400428;32;67819;-63
2023/09/07 06:06:12;;;;;;;;;;;;;;;;;;4400484;32;72173;-62
2023/09/07 06:08:59;;;;;;;3.55;1.12;;;;;;;;;;4399128;32;67321;-63
2023/09/07 06:11:45;;;;;;;;;;;;;;;;;;4409727;32;66428;-62
2023/09/07 06:14:33;;;;;;;2.80;1.75;;;;;;;;;;4410314;32;58894;-63
2023/09/07 06:17:19;;;;;;;1.27;0.98;;;;;;;;;;4410732;32;72074;-62
2023/09/07 06:20:07;;;;;;;1.33;1.20;;;;;;;;;;4410364;32;65910;-62
2023/09/07 06:22:54;;;;;;;2.70;1.17;;;;;;;;;;4410361;32;66563;-63
2023/09/07 06:25:41;;;;;;;2.17;1.48;;;;;;;;;;4410607;32;59990;-63
2023/09/07 06:28:27;;;;;;;1.85;1.58;;;;;;;;;;4410338;32;70571;-63
2023/09/07 06:31:15;;;;;;;3.62;1.20;;;;;;;;;;4398652;32;68258;-63
2023/09/07 06:34:02;;;;;;;2.03;1.50;;;;;;;;;;4410232;32;67991;-63
2023/09/07 06:36:49;;;;;;;1.05;0.90;;;;;;;;;;4398291;32;71688;-62
2023/09/07 06:39:36;;;;;;;1.73;1.20;;;;;;;;;;4408726;32;66381;-63
2023/09/07 06:42:23;;;;;;;2.12;1.23;;;;;;;;;;4397494;32;69870;-63
2023/09/07 06:45:10;;;;;;;1.55;1.42;;;;;;;;;;4410043;32;67831;-63
2023/09/07 06:47:57;;;;;;;1.80;1.27;;;;;;;;;;4408951;32;70882;-62
2023/09/07 06:50:44;;;;;;;;;;;;;;;;;;4410057;32;65772;-62
2023/09/07 06:53:31;;;;;;;1.45;1.35;;;;;;;;;;4414182;32;67687;-64
2023/09/07 06:56:18;;;;;;;1.85;1.08;;;;;;;;;;4409424;32;60347;-64
2023/09/07 06:59:05;;;;;;;1.87;1.50;;;;;;;;;;4410014;32;69551;-63
2023/09/07 07:01:52;;;;;;;2.05;1.70;;;;;;;;;;4405849;32;68376;-64
2023/09/07 07:04:38;;;;;;;;;;;;;;;;;;4400572;32;66831;-64
2023/09/07 07:07:25;;;;;;;2.72;1.52;;;;;;;;;;4388515;32;59941;-63
2023/09/07 07:10:12;;;;;;;2.00;1.55;;;;;;;;;;4399574;32;70795;-63
2023/09/07 07:12:58;;;;;;;2.10;1.40;;;;;;;;;;4399593;32;69578;-63
2023/09/07 07:15:45;;;;;;;4.90;1.58;;;;;;;;;;4398571;32;66690;-63
2023/09/07 07:18:32;;;;;;;2.67;1.58;;;;;;;;;;4397779;32;71572;-64
2023/09/07 07:21:19;;;;;;;0.65;0.62;;;;;;;;;;4386928;32;65938;-64
2023/09/07 07:24:07;;;;;;;4.35;1.60;;;;;;;;;;4376469;32;68131;-63
2023/09/07 07:26:54;;;;;;;2.28;1.67;;;;;;;;;;4377352;32;59548;-63
2023/09/07 07:29:40;;;;;;;;;;;;;;;;;;4399885;32;70431;-64
2023/09/07 07:32:27;;;;;;;1.30;1.20;;;;;;;;;;4398372;32;65876;-63
2023/09/07 07:35:14;;;;;;;1.87;1.40;;;;;;;;;;4399493;32;67548;-62
2023/09/07 07:38:03;;;;;;;1.95;1.25;;;;;;;;;;4398738;32;59353;-63
2023/09/07 07:40:50;;;;;;;4.22;1.73;;;;;;;;;;4398159;32;70621;-63
2023/09/07 07:43:37;;;;;;;3.40;1.48;;;;;;;;;;4398047;32;69327;-64
2023/09/07 07:46:24;;;;;;;1.98;1.52;;;;;;;;;;4387566;32;67305;-63
2023/09/07 07:49:10;;;;;;;;;;;;;;;;;;4387511;32;71791;-62
2023/09/07 07:51:57;;;;;;;2.75;1.52;;;;;;;;;;4399036;32;66556;-63
2023/09/07 07:54:44;;;;;;;2.25;1.20;;;;;;;;;;4387714;32;67279;-62
2023/09/07 07:57:31;;;;;;;;;;;;;;;;;;4376485;32;67675;-63
2023/09/07 08:00:19;;;;;;;3.42;1.50;;;;;;;;;;4376677;32;70780;-63
2023/09/07 08:03:08;;;;;;;1.45;1.00;;;;;;;;;;4386888;32;67184;-64
2023/09/07 08:05:55;;;;;;;3.17;1.42;;;;;;;;;;4376796;32;67821;-63
2023/09/07 08:08:45;;;;;;;2.35;1.10;;;;;;;;;;4400857;32;60097;-63
2023/09/07 08:11:32;;;;;;;2.65;1.25;;;;;;;;;;4400080;32;69632;-64
2023/09/07 08:14:20;;;;;;;2.35;1.23;;;;;;;;;;4386323;32;69549;-62
2023/09/07 08:17:07;;;;;;;2.03;1.45;;;;;;;;;;4387145;32;67192;-63
2023/09/07 08:19:56;;;;;;;3.83;2.00;;;;;;;;;;4397943;32;59051;-63
2023/09/07 08:22:44;;;;;;;5.60;1.80;;;;;;;;;;4386698;32;70291;-63
2023/09/07 08:25:31;;;;;;;3.60;1.05;;;;;;;;;;4397180;32;69492;-63
2023/09/07 08:28:18;;;;;;;2.22;1.10;;;;;;;;;;4397496;32;67618;-63
2023/09/07 08:31:07;;;;;;;2.03;1.60;;;;;;;;;;4376049;32;72243;-63
2023/09/07 08:33:54;;;;;;;0.77;0.73;;;;;;;;;;4397323;32;65011;-65
2023/09/07 08:36:42;;;;;;;3.60;1.85;;;;;;;;;;4386147;32;68035;-63
2023/09/07 08:39:28;;;;;;;2.12;1.30;;;;;;;;;;4397058;32;60820;-63
2023/09/07 08:42:15;;;;;;;1.27;1.05;;;;;;;;;;4397038;32;70467;-63
2023/09/07 08:45:08;;;;;;;3.08;1.33;;;;;;;;;;4386900;32;65846;-65
2023/09/07 08:47:56;;;;;;;3.80;1.40;;;;;;;;;;4397213;32;66813;-65
2023/09/07 08:50:42;;;;;;;;;;;;;;;;;;4398642;32;60155;-63
2023/09/07 08:53:31;;;;;;;2.90;1.53;;;;;;;;;;4397458;32;69708;-64
2023/09/07 08:56:19;;;;;;;2.30;1.50;;;;;;;;;;4375558;32;68401;-63
2023/09/07 08:59:05;;;;;;;3.53;1.65;;;;;;;;;;4396613;32;67722;-64
2023/09/07 09:01:58;;;;;;;2.83;1.50;;;;;;;;;;4386184;32;71344;-63
2023/09/07 09:04:44;;;;;;;1.85;1.45;;;;;;;;;;4396947;32;65101;-64
2023/09/07 09:07:31;;;;;;;;;;;;;;;;;;4397664;32;67674;-63
2023/09/07 09:10:18;;;;;;;1.50;1.20;;;;;;;;;;4397156;32;67762;-63
2023/09/07 09:13:05;;;;;;;2.00;1.20;;;;;;;;;;4396769;32;71574;-63
2023/09/07 09:15:51;;;;;;;;;;;;;;;;;;4386756;32;65129;-63
2023/09/07 09:18:38;;;;;;;1.90;1.30;;;;;;;;;;4375071;32;69924;-63
2023/09/07 09:21:28;;;;;;;1.87;1.25;;;;;;;;;;4396894;32;59931;-62
2023/09/07 09:24:15;;;;;;;1.37;0.93;;;;;;;;;;4396785;32;69577;-62
2023/09/07 09:27:02;;;;;;;3.15;1.50;;;;;;;;;;4396954;32;68695;-61
2023/09/07 09:29:50;;;;;;;2.22;1.70;;;;;;;;;;4398554;32;67592;-64
2023/09/07 09:32:37;;;;;;;5.03;1.40;;;;;;;;;;4401319;32;71389;-63
2023/09/07 09:35:24;;;;;;;1.52;1.33;;;;;;;;;;4379017;32;70595;-63
2023/09/07 09:38:13;;;;;;;1.73;1.40;;;;;;;;;;4385900;32;69304;-64
2023/09/07 09:41:00;;;;;;;3.08;1.62;;;;;;;;;;4386248;32;66626;-64
2023/09/07 09:43:51;;;;;;;3.37;1.92;;;;;;;;;;4397798;32;70943;-64
2023/09/07 09:46:39;;;;;;;1.60;1.50;;;;;;;;;;4375151;32;66467;-65
2023/09/07 09:49:26;;;;;;;1.92;1.37;;;;;;;;;;4386057;32;67592;-64
2023/09/07 09:52:14;;;;;;;1.48;1.27;;;;;;;;;;4397750;32;61663;-63
2023/09/07 09:55:01;;;;;;;3.10;1.52;;;;;;;;;;4396363;32;69722;-63
2023/09/07 09:57:49;;;;;;;2.05;1.33;;;;;;;;;;4397780;32;68133;-64
2023/09/07 10:00:37;;;;;;;3.03;1.70;;;;;;;;;;4386198;32;67621;-63
2023/09/07 10:03:33;;;;;;;1.83;1.25;;;;;;;;;;4385942;32;61503;-64
2023/09/07 10:06:24;;;;;;;1.58;1.05;;;;;;;;;;4375125;32;69627;-64
2023/09/07 10:09:17;;;;;;;1.58;1.45;;;;;;;;;;4375232;32;69326;-64
2023/09/07 10:12:07;;;;;;;7.47;1.73;;;;;;;;;;4386237;32;66781;-65
2023/09/07 10:14:55;;;;;;;2.80;1.45;;;;;;;;;;4396489;32;71720;-63
2023/09/07 10:17:41;;;;;;;1.25;1.10;;;;;;;;;;4397699;32;65094;-64
2023/09/07 10:20:28;;;;;;;3.28;1.62;;;;;;;;;;4396687;32;67574;-62
2023/09/07 10:23:15;;;;;;;;;;;;;;;;;;4386482;32;59074;-62
2023/09/07 10:26:07;;;;;;;1.42;1.30;;;;;;;;;;4374291;32;71736;-65
2023/09/07 10:29:05;;;;;;;1.45;1.15;;;;;;;;;;4386232;32;66053;-62
2023/09/07 10:31:52;;;;;;;1.70;1.42;;;;;;;;;;4396195;32;67733;-65
2023/09/07 10:34:43;;;;;;;2.12;1.27;;;;;;;;;;4385878;32;60435;-64
2023/09/07 10:37:30;;;;;;;2.17;1.30;;;;;;;;;;4386502;32;70403;-64
2023/09/07 10:40:23;;;;;;;;;;;;;;;;;;4388512;32;68341;-63
2023/09/07 10:43:10;;;;;;;0.60;0.52;;;;;;;;;;4399240;32;67792;-63
2023/09/07 10:45:58;;;;;;;1.25;1.02;;;;;;;;;;4399076;32;71761;-64
2023/09/07 10:48:45;;;;;;;1.20;1.10;;;;;;;;;;4398806;32;69454;-64
2023/09/07 10:51:31;;;;;;;3.92;1.80;;;;;;;;;;4398187;32;69196;-63
2023/09/07 10:54:23;;;;;;;2.40;1.55;;;;;;;;;;4400591;32;67953;-64
2023/09/07 10:57:10;;;;;;;1.83;1.37;;;;;;;;;;4399866;32;70650;-65
2023/09/07 10:59:57;;;;;;;3.12;1.48;;;;;;;;;;4377480;32;64935;-64
2023/09/07 11:02:43;;;;;;;;;;;;;;;;;;4399101;32;66874;-64
2023/09/07 11:05:30;;;;;;;1.25;1.10;;;;;;;;;;4377846;32;59846;-64
2023/09/07 11:08:16;;;;;;;;;;;;;;;;;;4377712;32;69309;-63
2023/09/07 11:11:03;;;;;;;3.53;1.37;;;;;;;;;;4398684;32;68675;-64
2023/09/07 11:13:51;;;;;;;4.50;1.65;;;;;;;;;;4387244;32;67342;-64
2023/09/07 11:16:37;;;;;;;1.80;1.10;;;;;;;;;;4398824;32;59087;-64
2023/09/07 11:19:24;;;;;;;2.28;1.15;;;;;;;;;;4387826;32;70426;-64
2023/09/07 11:22:10;;;;;;;;;;;;;;;;;;4398525;32;69034;-64
2023/09/07 11:24:57;;;;;;;2.42;1.23;;;;;;;;;;4376163;32;68233;-64
2023/09/07 11:27:43;;;;;;;;;;;;;;;;;;4398504;32;71037;-64
2023/09/07 11:30:30;;;;;;;2.35;1.30;;;;;;;;;;4397932;32;66280;-64
2023/09/07 11:33:16;;;;;;;;;;;;;;;;;;4398456;32;67668;-63
2023/09/07 11:36:04;;;;;;;2.87;1.20;;;;;;;;;;4398596;32;58982;-64
2023/09/07 11:38:54;;;;;;;1.62;1.30;;;;;;;;;;4387617;32;71808;-65
2023/09/07 11:41:44;;;;;;;2.37;1.25;;;;;;;;;;4399590;32;64892;-64
2023/09/07 11:44:30;;;;;;;1.67;1.10;;;;;;;;;;4398360;32;67010;-63
2023/09/07 11:47:16;;;;;;;1.00;0.88;;;;;;;;;;4399599;32;60347;-64
2023/09/07 11:50:05;;;;;;;2.58;1.35;;;;;;;;;;4399107;32;70582;-64
2023/09/07 11:52:51;;;;;;;4.35;1.62;;;;;;;;;;4398037;32;69394;-64
2023/09/07 11:55:40;;;;;;;3.10;1.45;;;;;;;;;;4399334;32;67351;-64
2023/09/07 11:58:27;;;;;;;1.00;1.00;;;;;;;;;;4387576;32;72167;-65
2023/09/07 12:01:16;;;;;;;;;;;;;;;;;;4387387;32;65862;-63
2023/09/07 12:04:04;;;;;;;1.35;1.10;;;;;;;;;;4387108;32;69436;-64
2023/09/07 12:06:50;;;;;;;2.20;1.20;;;;;;;;;;4387091;32;67725;-63
2023/09/07 12:09:36;;;;;;;;;;;;;;;;;;4387356;32;70866;-64
2023/09/07 12:12:23;;;;;;;1.73;0.80;;;;;;;;;;4387258;32;64777;-63
2023/09/07 12:15:13;;;;;;;1.58;1.10;;;;;;;;;;4393053;32;67019;-64
2023/09/07 12:18:00;;;;;;;3.70;1.20;;;;;;;;;;4398370;32;60138;-63
2023/09/07 12:20:47;;;;;;;2.03;1.27;;;;;;;;;;4398784;32;70623;-63
2023/09/07 12:23:33;;;;;;;1.17;1.08;;;;;;;;;;4398917;32;68238;-63
2023/09/07 12:26:20;;;;;;;;;;;;;;;;;;4400332;32;66770;-63
2023/09/07 12:29:07;;;;;;;1.30;1.17;;;;;;;;;;4387494;32;58620;-63
2023/09/07 12:31:54;;;;;;;1.95;0.90;;;;;;;;;;4387261;32;70552;-64
2023/09/07 12:34:41;;;;;;;;;;;;;;;;;;4387268;32;68563;-64
2023/09/07 12:37:27;;;;;;;0.77;0.77;;;;;;;;;;4397741;32;67831;-64
2023/09/07 12:40:14;;;;;;;1.30;1.02;;;;;;;;;;4398926;32;71945;-64
2023/09/07 12:43:01;;;;;;;1.70;1.20;;;;;;;;;;4398942;32;65893;-62
2023/09/07 12:45:47;;;;;;;1.37;0.88;;;;;;;;;;4397525;32;67018;-64
2023/09/07 12:48:35;;;;;;;2.45;1.02;;;;;;;;;;4397909;32;60332;-65
2023/09/07 12:51:21;;;;;;;1.37;1.12;;;;;;;;;;4396885;32;70687;-64
2023/09/07 12:54:08;;;;;;;1.12;0.68;;;;;;;;;;4398692;32;66045;-64
2023/09/07 12:56:54;;;;;;;1.73;0.90;;;;;;;;;;4386672;32;66929;-64
2023/09/07 12:59:40;;;;;;;1.20;1.10;;;;;;;;;;4398412;32;59352;-65
2023/09/07 13:02:27;;;;;;;3.15;0.95;;;;;;;;;;4398441;32;69667;-63
2023/09/07 13:05:14;;;;;;;2.62;1.30;;;;;;;;;;4386448;32;68456;-64
2023/09/07 13:08:02;;;;;;;;;;;;;;;;;;4397663;32;67475;-63
2023/09/07 13:10:48;;;;;;;1.95;0.98;;;;;;;;;;4386723;32;71722;-64
2023/09/07 13:13:35;;;;;;;2.28;1.00;;;;;;;;;;4386536;32;65941;-63
2023/09/07 13:16:21;;;;;;;1.87;0.95;;;;;;;;;;4386430;32;69200;-64
2023/09/07 13:19:07;;;;;;;;;;;;;;;;;;4398710;32;66870;-64
2023/09/07 13:21:54;;;;;;;1.65;1.10;;;;;;;;;;4386539;32;71159;-64
2023/09/07 13:24:41;;;;;;;1.27;0.98;;;;;;;;;;4386519;32;64754;-63
2023/09/07 13:27:27;;;;;;;;;;;;;;;;;;4397375;32;67009;-64
2023/09/07 13:30:13;;;;;;;2.17;0.88;;;;;;;;;;4398881;32;59139;-64
2023/09/07 13:33:00;;;;;;;3.53;1.40;;;;;;;;;;4385545;32;70669;-65
2023/09/07 13:35:47;;;;;;;1.90;1.37;;;;;;;;;;4396712;32;68254;-64
2023/09/07 13:38:33;;;;;;;;;;;;;;;;;;4398738;32;67752;-64
2023/09/07 13:41:20;;;;;;;1.45;1.10;;;;;;;;;;4397431;32;59168;-64
2023/09/07 13:44:07;;;;;;;1.60;1.08;;;;;;;;;;4386165;32;70854;-63
2023/09/07 13:46:54;;;;;;;2.60;1.60;;;;;;;;;;4385474;32;69219;-64
2023/09/07 13:49:41;;;;;;;1.77;1.20;;;;;;;;;;4396565;32;67689;-64
2023/09/07 13:52:27;;;;;;;2.20;1.30;;;;;;;;;;4397585;32;71907;-66
2023/09/07 13:55:14;;;;;;;1.85;1.20;;;;;;;;;;4396962;32;66271;-64
2023/09/07 13:58:01;;;;;;;;;;;;;;;;;;4386509;32;67077;-64
2023/09/07 14:00:47;;;;;;;3.20;1.40;;;;;;;;;;4375325;32;59603;-64
2023/09/07 14:03:34;;;;;;;2.20;1.30;;;;;;;;;;4399739;32;70383;-64
2023/09/07 14:06:23;;;;;;;1.55;1.42;;;;;;;;;;4382361;32;65838;-65
2023/09/07 14:09:10;;;;;;;2.08;1.17;;;;;;;;;;4393456;32;68462;-64
2023/09/07 14:11:56;;;;;;;;;;;;;;;;;;4394867;32;59357;-64
2023/09/07 14:14:43;;;;;;;1.27;0.80;;;;;;;;;;4396622;32;69895;-63
2023/09/07 14:17:29;;;;;;;1.98;1.25;;;;;;;;;;4407503;32;69298;-63
2023/09/07 14:20:16;;;;;;;3.33;1.35;;;;;;;;;;4401132;32;67699;-64
2023/09/07 14:23:03;;;;;;;1.80;1.15;;;;;;;;;;4388550;32;70747;-64
2023/09/07 14:25:50;;;;;;;2.45;1.30;;;;;;;;;;4377361;32;66896;-64
2023/09/07 14:28:37;;;;;;;;;;;;;;;;;;4399884;32;67854;-64
2023/09/07 14:34:08;;;;;;;2.15;1.50;;;;;;;;;;3847505;37;43199;-63
2023/09/07 14:36:55;;;;;;;4.18;1.60;;;;;;;;;;4410114;32;60148;-63
2023/09/07 14:39:47;;;;;;;3.85;1.80;;;;;;;;;;4388382;32;70491;-64
2023/09/07 14:42:34;;;;;;;1.83;1.55;;;;;;;;;;4399717;32;69580;-64
2023/09/07 14:45:20;;;;;;;;;;;;;;;;;;4399109;32;67583;-63
2023/09/07 14:48:07;;;;;;;3.05;1.75;;;;;;;;;;4398502;32;71396;-64
2023/09/07 14:50:53;;;;;;;2.25;1.83;;;;;;;;;;4409620;32;66033;-63
2023/09/07 14:53:40;;;;;;;;;;;;;;;;;;4415670;32;67123;-63
2023/09/07 14:56:28;;;;;;;4.30;2.20;;;;;;;;;;4414761;32;59316;-63
2023/09/07 14:59:14;;;;;;;4.30;1.90;;;;;;;;;;4409569;32;71662;-63
2023/09/07 15:02:00;;;;;;;;;;;;;;;;;;4409906;32;66114;-64
2023/09/07 15:04:47;;;;;;;2.78;1.87;;;;;;;;;;4409193;32;68328;-64
2023/09/07 15:07:33;;;;;;;4.87;1.80;;;;;;;;;;4411008;32;60065;-64
2023/09/07 15:10:20;;;;;;;2.85;1.80;;;;;;;;;;4397753;32;68773;-64
2023/09/07 15:13:08;;;;;;;;;;;;;;;;;;4410601;32;69327;-63
2023/09/07 15:15:54;;;;;;;2.08;1.60;;;;;;;;;;4408865;32;65298;-63
2023/09/07 15:18:40;;;;;;;3.50;2.25;;;;;;;;;;4408578;32;72781;-64
2023/09/07 15:21:27;;;;;;;7.03;3.97;;;;;;;;;;4409408;32;65951;-63
2023/09/07 15:24:14;;;;;;;6.28;4.10;;;;;;;;;;4397942;32;70497;-63
2023/09/07 15:27:09;;;;;;;2.45;1.73;;;;;;;;;;4398340;32;67007;-64
2023/09/07 15:29:55;;;;;;;1.50;1.40;;;;;;;;;;4409039;32;71955;-65
2023/09/07 15:32:41;;;;;;;2.92;1.30;;;;;;;;;;4376268;32;67050;-63
2023/09/07 15:35:28;;;;;;;;;;;;;;;;;;4388072;32;67632;-63
2023/09/07 15:38:15;;;;;;;1.42;1.30;;;;;;;;;;4409059;32;60583;-63
2023/09/07 15:41:04;;;;;;;2.60;1.30;;;;;;;;;;4410413;32;69410;-64
2023/09/07 15:43:53;;;;;;;1.30;1.20;;;;;;;;;;4405438;32;68197;-63
2023/09/07 15:46:40;;;;;;;2.45;1.37;;;;;;;;;;4398812;32;67667;-64
2023/09/07 15:49:26;;;;;;;1.70;1.25;;;;;;;;;;4399101;32;59936;-64
2023/09/07 15:52:17;;;;;;;1.77;1.12;;;;;;;;;;4398507;32;70357;-64
2023/09/07 15:55:04;;;;;;;3.50;1.27;;;;;;;;;;4387964;32;68378;-66
2023/09/07 15:57:50;;;;;;;1.77;1.05;;;;;;;;;;4398190;32;67293;-64
2023/09/07 16:00:37;;;;;;;1.98;1.02;;;;;;;;;;4399982;32;70998;-63
2023/09/07 16:03:24;;;;;;;2.05;1.50;;;;;;;;;;4400066;32;64944;-65
2023/09/07 16:06:10;;;;;;;1.62;1.23;;;;;;;;;;4399947;32;66709;-64
2023/09/07 16:08:57;;;;;;;3.20;1.40;;;;;;;;;;4387412;32;61397;-64
2023/09/07 16:11:44;;;;;;;;;;;;;;;;;;4398551;32;70567;-64
2023/09/07 16:14:30;;;;;;;4.50;1.55;;;;;;;;;;4398612;32;66722;-64
2023/09/07 16:17:16;;;;;;;1.73;1.30;;;;;;;;;;4399758;32;67213;-64
2023/09/07 16:20:03;;;;;;;;;;;;;;;;;;4400236;32;60045;-64
2023/09/07 16:22:49;;;;;;;1.25;1.10;;;;;;;;;;4387656;32;69861;-64
2023/09/07 16:25:37;;;;;;;4.07;1.83;;;;;;;;;;4398280;32;68272;-64
2023/09/07 16:28:23;;;;;;;1.62;1.40;;;;;;;;;;4387557;32;67679;-64
2023/09/07 16:31:10;;;;;;;1.75;1.20;;;;;;;;;;4398378;32;71815;-63
2023/09/07 16:33:56;;;;;;;;;;;;;;;;;;4398350;32;66262;-64
2023/09/07 16:36:44;;;;;;;1.55;1.15;;;;;;;;;;4398647;32;67554;-64
2023/09/07 16:39:31;;;;;;;1.48;1.20;;;;;;;;;;4398358;32;67619;-64
2023/09/07 16:42:18;;;;;;;1.33;1.00;;;;;;;;;;4399404;32;71966;-65
2023/09/07 16:45:06;;;;;;;1.25;1.02;;;;;;;;;;4399419;32;64915;-64
2023/09/07 16:47:53;;;;;;;0.90;0.90;;;;;;;;;;4399265;32;66641;-64
2023/09/07 16:50:45;;;;;;;1.85;0.75;;;;;;;;;;4398377;32;59310;-64
2023/09/07 16:53:32;;;;;;;2.08;1.02;;;;;;;;;;4397645;32;69484;-64
2023/09/07 16:56:20;;;;;;;2.03;1.02;;;;;;;;;;4398430;32;69290;-64
2023/09/07 16:59:07;;;;;;;0.70;0.70;;;;;;;;;;4397873;32;66669;-65
2023/09/07 17:01:53;;;;;;;1.33;0.93;;;;;;;;;;4398076;32;60327;-64
2023/09/07 17:04:40;;;;;;;;;;;;;;;;;;4387670;32;70425;-64
2023/09/07 17:07:27;;;;;;;2.03;1.10;;;;;;;;;;4397957;32;69616;-64